createdAt,value
2023-06-30T00:00:28.014Z,27.21
2023-06-30T00:01:28.034Z,27.22
2023-06-30T00:02:28.134Z,27.22
2023-06-30T00:03:28.277Z,27.22
2023-06-30T00:04:28.374Z,27.22
2023-06-30T00:05:28.202Z,27.22
2023-06-30T00:06:28.254Z,27.22
2023-06-30T00:07:28.289Z,27.22
2023-06-30T00:08:28.310Z,27.22
2023-06-30T00:09:28.369Z,27.23
2023-06-30T00:10:28.592Z,27.23
2023-06-30T00:11:28.441Z,27.22
2023-06-30T00:12:28.476Z,27.21
2023-06-30T00:13:28.546Z,27.21
2023-06-30T00:14:28.588Z,27.21
2023-06-30T00:15:28.694Z,27.22
2023-06-30T00:16:28.728Z,27.22
2023-06-30T00:17:28.766Z,27.22
2023-06-30T00:18:28.745Z,27.21
2023-06-30T00:19:28.831Z,27.21
2023-06-30T00:20:28.834Z,27.21
2023-06-30T00:21:28.835Z,27.20
2023-06-30T00:22:28.962Z,27.19
2023-06-30T00:23:28.951Z,27.19
2023-06-30T00:24:29.040Z,27.20
2023-06-30T00:25:29.058Z,27.18
2023-06-30T00:26:29.103Z,27.16
2023-06-30T00:27:29.116Z,27.14
2023-06-30T00:28:29.180Z,27.14
2023-06-30T00:29:29.214Z,27.16
2023-06-30T00:30:29.307Z,27.16
2023-06-30T00:31:29.367Z,27.16
2023-06-30T00:32:29.348Z,27.16
2023-06-30T00:33:29.424Z,27.17
2023-06-30T00:34:29.466Z,27.17
2023-06-30T00:35:29.532Z,27.18
2023-06-30T00:36:29.549Z,27.18
2023-06-30T00:37:29.568Z,27.17
2023-06-30T00:38:29.629Z,27.17
2023-06-30T00:39:29.678Z,27.18
2023-06-30T00:40:29.718Z,27.18
2023-06-30T00:41:29.777Z,27.17
2023-06-30T00:42:29.843Z,27.18
2023-06-30T00:43:29.855Z,27.19
2023-06-30T00:44:29.877Z,27.20
2023-06-30T00:45:29.934Z,27.19
2023-06-30T00:46:30.021Z,27.20
2023-06-30T00:47:30.046Z,27.20
2023-06-30T00:48:30.095Z,27.19
2023-06-30T00:49:30.095Z,27.21
2023-06-30T00:50:30.149Z,27.21
2023-06-30T00:51:30.176Z,27.21
2023-06-30T00:52:30.239Z,27.21
2023-06-30T00:53:30.293Z,27.20
2023-06-30T00:54:30.347Z,27.19
2023-06-30T00:55:30.364Z,27.17
2023-06-30T00:56:30.420Z,27.17
2023-06-30T00:57:30.467Z,27.16
2023-06-30T00:58:30.520Z,27.15
2023-06-30T00:59:30.559Z,27.17
2023-06-30T01:00:30.591Z,27.16
2023-06-30T01:01:30.658Z,27.15
2023-06-30T01:02:30.756Z,27.14
2023-06-30T01:03:30.855Z,27.15
2023-06-30T01:04:30.935Z,27.16
2023-06-30T01:05:30.839Z,27.16
2023-06-30T01:06:30.871Z,27.13
2023-06-30T01:07:31.014Z,27.13
2023-06-30T01:08:30.964Z,27.14
2023-06-30T01:09:31.018Z,27.16
2023-06-30T01:10:31.087Z,27.15
2023-06-30T01:11:31.115Z,27.15
2023-06-30T01:12:31.151Z,27.13
2023-06-30T01:13:31.206Z,27.12
2023-06-30T01:14:31.245Z,27.13
2023-06-30T01:15:31.340Z,27.13
2023-06-30T01:16:31.389Z,27.13
2023-06-30T01:17:31.396Z,27.13
2023-06-30T01:18:31.402Z,27.14
2023-06-30T01:19:31.464Z,27.14
2023-06-30T01:20:31.497Z,27.13
2023-06-30T01:21:31.565Z,27.13
2023-06-30T01:22:31.601Z,27.13
2023-06-30T01:23:31.645Z,27.14
2023-06-30T01:24:31.724Z,27.15
2023-06-30T01:25:31.804Z,27.15
2023-06-30T01:26:31.826Z,27.15
2023-06-30T01:27:31.827Z,27.15
2023-06-30T01:28:31.915Z,27.15
2023-06-30T01:29:31.953Z,27.15
2023-06-30T01:30:32.005Z,27.15
2023-06-30T01:31:32.047Z,27.16
2023-06-30T01:32:32.069Z,27.16
2023-06-30T01:33:32.090Z,27.18
2023-06-30T01:34:32.181Z,27.17
2023-06-30T01:35:32.196Z,27.15
2023-06-30T01:36:32.234Z,27.14
2023-06-30T01:37:32.313Z,27.15
2023-06-30T01:38:32.349Z,27.15
2023-06-30T01:39:32.375Z,27.13
2023-06-30T01:40:32.471Z,27.13
2023-06-30T01:41:32.460Z,27.13
2023-06-30T01:42:32.574Z,27.14
2023-06-30T01:43:32.557Z,27.14
2023-06-30T01:44:32.586Z,27.16
2023-06-30T01:45:32.613Z,27.16
2023-06-30T01:46:32.689Z,27.16
2023-06-30T01:47:32.750Z,27.17
2023-06-30T01:48:32.781Z,27.19
2023-06-30T01:49:32.753Z,27.18
2023-06-30T01:50:32.800Z,27.18
2023-06-30T01:51:32.845Z,27.17
2023-06-30T01:52:32.928Z,27.16
2023-06-30T01:53:32.925Z,27.15
2023-06-30T01:54:32.965Z,27.14
2023-06-30T01:55:33.076Z,27.16
2023-06-30T01:56:33.075Z,27.16
2023-06-30T01:57:33.090Z,27.16
2023-06-30T01:58:33.178Z,27.14
2023-06-30T01:59:33.201Z,27.13
2023-06-30T02:00:33.221Z,27.12
2023-06-30T02:01:33.373Z,27.12
2023-06-30T02:02:33.564Z,27.11
2023-06-30T02:03:33.481Z,27.11
2023-06-30T02:04:33.393Z,27.10
2023-06-30T02:05:33.447Z,27.11
2023-06-30T02:06:33.535Z,27.11
2023-06-30T02:07:33.654Z,27.11
2023-06-30T02:08:33.591Z,27.09
2023-06-30T02:09:43.238Z,27.07
2023-06-30T02:10:34.656Z,27.04
2023-06-30T02:11:33.644Z,27.03
2023-06-30T02:12:33.609Z,27.04
2023-06-30T02:13:33.625Z,27.04
2023-06-30T02:14:33.645Z,27.05
2023-06-30T02:15:33.627Z,27.06
2023-06-30T02:16:33.621Z,27.06
2023-06-30T02:17:33.687Z,27.05
2023-06-30T02:18:33.591Z,27.02
2023-06-30T02:19:33.617Z,27.02
2023-06-30T02:20:33.803Z,27.02
2023-06-30T02:21:33.738Z,27.03
2023-06-30T02:22:33.766Z,27.03
2023-06-30T02:23:33.856Z,27.05
2023-06-30T02:24:33.903Z,27.06
2023-06-30T02:25:33.988Z,27.07
2023-06-30T02:26:33.971Z,27.08
2023-06-30T02:27:34.015Z,27.08
2023-06-30T02:28:34.100Z,27.07
2023-06-30T02:29:34.095Z,27.06
2023-06-30T02:30:34.169Z,27.07
2023-06-30T02:31:34.317Z,27.05
2023-06-30T02:32:34.347Z,27.01
2023-06-30T02:33:34.385Z,26.98
2023-06-30T02:34:34.408Z,26.94
2023-06-30T02:35:34.562Z,26.95
2023-06-30T02:36:34.521Z,26.95
2023-06-30T02:37:34.608Z,26.94
2023-06-30T02:38:34.638Z,26.97
2023-06-30T02:39:34.718Z,26.96
2023-06-30T02:40:34.808Z,26.96
2023-06-30T02:41:34.830Z,26.95
2023-06-30T02:42:34.906Z,26.96
2023-06-30T02:43:34.977Z,26.97
2023-06-30T02:44:35.031Z,26.96
2023-06-30T02:45:35.202Z,26.96
2023-06-30T02:46:35.200Z,26.96
2023-06-30T02:47:35.231Z,26.98
2023-06-30T02:48:35.298Z,26.99
2023-06-30T02:49:35.293Z,27.00
2023-06-30T02:50:35.404Z,27.00
2023-06-30T02:51:35.476Z,26.99
2023-06-30T02:52:35.512Z,26.99
2023-06-30T02:53:35.557Z,27.01
2023-06-30T02:54:35.625Z,27.01
2023-06-30T02:55:38.777Z,27.01
2023-06-30T02:56:35.685Z,26.99
2023-06-30T02:57:35.663Z,26.96
2023-06-30T02:58:35.703Z,26.98
2023-06-30T02:59:35.669Z,26.98
2023-06-30T03:00:35.701Z,26.96
2023-06-30T03:01:35.785Z,26.98
2023-06-30T03:02:35.761Z,26.98
2023-06-30T03:03:35.702Z,26.96
2023-06-30T03:04:35.620Z,26.94
2023-06-30T03:05:35.626Z,26.95
2023-06-30T03:06:35.580Z,26.96
2023-06-30T03:07:35.859Z,26.95
2023-06-30T03:08:35.592Z,26.96
2023-06-30T03:09:35.608Z,26.96
2023-06-30T03:10:35.620Z,26.96
2023-06-30T03:11:35.578Z,26.95
2023-06-30T03:12:35.564Z,26.94
2023-06-30T03:13:35.573Z,26.94
2023-06-30T03:14:35.565Z,26.94
2023-06-30T03:15:35.600Z,26.95
2023-06-30T03:16:35.577Z,26.93
2023-06-30T03:17:35.521Z,26.91
2023-06-30T03:18:35.530Z,26.92
2023-06-30T03:19:35.534Z,26.92
2023-06-30T03:20:35.539Z,26.93
2023-06-30T03:21:35.554Z,26.92
2023-06-30T03:22:35.520Z,26.92
2023-06-30T03:23:35.528Z,26.91
2023-06-30T03:24:35.529Z,26.91
2023-06-30T03:25:35.510Z,26.89
2023-06-30T03:26:35.494Z,26.87
2023-06-30T03:27:35.465Z,26.87
2023-06-30T03:28:35.470Z,26.87
2023-06-30T03:29:35.458Z,26.88
2023-06-30T03:30:35.555Z,26.85
2023-06-30T03:31:35.547Z,26.86
2023-06-30T03:32:35.542Z,26.84
2023-06-30T03:33:35.577Z,26.84
2023-06-30T03:34:35.616Z,26.85
2023-06-30T03:35:35.649Z,26.85
2023-06-30T03:36:35.651Z,26.87
2023-06-30T03:37:35.705Z,26.87
2023-06-30T03:38:35.832Z,26.88
2023-06-30T03:39:35.819Z,26.88
2023-06-30T03:40:35.937Z,26.88
2023-06-30T03:41:35.897Z,26.89
2023-06-30T03:42:35.934Z,26.87
2023-06-30T03:43:36.016Z,26.86
2023-06-30T03:44:36.015Z,26.85
2023-06-30T03:45:36.065Z,26.85
2023-06-30T03:46:36.124Z,26.85
2023-06-30T03:47:36.175Z,26.86
2023-06-30T03:48:36.154Z,26.86
2023-06-30T03:49:36.189Z,26.86
2023-06-30T03:50:36.191Z,26.85
2023-06-30T03:51:36.251Z,26.86
2023-06-30T03:52:36.244Z,26.85
2023-06-30T03:53:36.317Z,26.85
2023-06-30T03:54:36.354Z,26.85
2023-06-30T03:55:36.377Z,26.84
2023-06-30T03:56:36.416Z,26.84
2023-06-30T03:57:36.449Z,26.83
2023-06-30T03:58:36.465Z,26.83
2023-06-30T03:59:36.514Z,26.83
2023-06-30T04:00:36.529Z,26.82
2023-06-30T04:01:36.540Z,26.83
2023-06-30T04:02:36.611Z,26.84
2023-06-30T04:03:36.711Z,26.84
2023-06-30T04:04:36.794Z,26.87
2023-06-30T04:05:36.752Z,26.87
2023-06-30T04:06:36.792Z,26.89
2023-06-30T04:07:37.030Z,26.91
2023-06-30T04:08:36.945Z,26.94
2023-06-30T04:09:37.004Z,26.95
2023-06-30T04:10:37.060Z,26.92
2023-06-30T04:11:37.099Z,26.92
2023-06-30T04:12:37.175Z,26.92
2023-06-30T04:13:37.286Z,26.92
2023-06-30T04:14:37.321Z,26.92
2023-06-30T04:15:37.368Z,26.91
2023-06-30T04:16:37.430Z,26.92
2023-06-30T04:17:37.495Z,26.93
2023-06-30T04:18:37.567Z,26.94
2023-06-30T04:19:37.598Z,26.93
2023-06-30T04:20:37.690Z,26.93
2023-06-30T04:21:37.704Z,26.93
2023-06-30T04:22:37.796Z,26.94
2023-06-30T04:23:37.824Z,26.95
2023-06-30T04:24:37.934Z,26.95
2023-06-30T04:25:37.981Z,26.95
2023-06-30T04:26:38.103Z,26.95
2023-06-30T04:27:38.121Z,26.94
2023-06-30T04:28:38.218Z,26.93
2023-06-30T04:29:38.209Z,26.94
2023-06-30T04:30:38.682Z,26.94
2023-06-30T04:31:38.399Z,26.95
2023-06-30T04:32:38.463Z,26.93
2023-06-30T04:33:38.445Z,26.93
2023-06-30T04:34:38.513Z,26.93
2023-06-30T04:35:38.609Z,26.93
2023-06-30T04:36:38.652Z,26.94
2023-06-30T04:37:38.722Z,26.95
2023-06-30T04:38:38.861Z,26.95
2023-06-30T04:39:38.834Z,26.95
2023-06-30T04:40:38.871Z,26.97
2023-06-30T04:41:38.975Z,26.97
2023-06-30T04:42:39.069Z,26.96
2023-06-30T04:43:39.063Z,26.95
2023-06-30T04:44:39.164Z,26.96
2023-06-30T04:45:39.174Z,26.96
2023-06-30T04:46:39.326Z,26.97
2023-06-30T04:47:39.379Z,26.98
2023-06-30T04:48:39.386Z,26.99
2023-06-30T04:49:39.402Z,26.99
2023-06-30T04:50:39.488Z,26.99
2023-06-30T04:51:39.553Z,26.99
2023-06-30T04:52:39.639Z,26.99
2023-06-30T04:53:39.679Z,26.99
2023-06-30T04:54:39.721Z,26.97
2023-06-30T04:55:39.803Z,26.97
2023-06-30T04:56:39.844Z,26.96
2023-06-30T04:57:39.902Z,26.96
2023-06-30T04:58:39.963Z,26.96
2023-06-30T04:59:40.067Z,26.94
2023-06-30T05:00:40.126Z,26.90
2023-06-30T05:01:40.177Z,26.89
2023-06-30T05:02:40.214Z,26.90
2023-06-30T05:03:40.260Z,26.89
2023-06-30T05:04:40.313Z,26.88
2023-06-30T05:05:40.413Z,26.87
2023-06-30T05:06:40.390Z,26.84
2023-06-30T05:07:40.525Z,26.83
2023-06-30T05:08:40.459Z,26.83
2023-06-30T05:09:40.547Z,26.82
2023-06-30T05:10:40.583Z,26.81
2023-06-30T05:11:40.653Z,26.80
2023-06-30T05:12:40.601Z,26.77
2023-06-30T05:13:40.616Z,26.75
2023-06-30T05:14:40.624Z,26.78
2023-06-30T05:15:40.718Z,26.80
2023-06-30T05:16:40.722Z,26.81
2023-06-30T05:17:40.812Z,26.82
2023-06-30T05:18:40.754Z,26.82
2023-06-30T05:19:40.774Z,26.80
2023-06-30T05:20:40.829Z,26.82
2023-06-30T05:21:40.868Z,26.82
2023-06-30T05:22:40.898Z,26.84
2023-06-30T05:23:40.952Z,26.86
2023-06-30T05:24:40.965Z,26.84
2023-06-30T05:25:41.002Z,26.83
2023-06-30T05:26:41.112Z,26.85
2023-06-30T05:27:41.056Z,26.85
2023-06-30T05:28:43.166Z,26.86
2023-06-30T05:29:42.129Z,26.86
2023-06-30T05:30:41.122Z,26.87
2023-06-30T05:31:41.152Z,26.88
2023-06-30T05:32:41.188Z,26.91
2023-06-30T05:33:41.095Z,26.94
2023-06-30T05:34:41.081Z,26.97
2023-06-30T05:35:41.053Z,26.99
2023-06-30T05:36:41.080Z,26.98
2023-06-30T05:37:41.117Z,26.99
2023-06-30T05:38:41.163Z,26.99
2023-06-30T05:39:41.199Z,26.99
2023-06-30T05:40:41.284Z,26.98
2023-06-30T05:41:41.321Z,26.99
2023-06-30T05:42:41.349Z,27.00
2023-06-30T05:43:41.427Z,27.00
2023-06-30T05:44:41.507Z,27.01
2023-06-30T05:45:41.573Z,27.04
2023-06-30T05:46:41.612Z,27.04
2023-06-30T05:47:41.692Z,27.05
2023-06-30T05:48:41.645Z,27.05
2023-06-30T05:49:41.713Z,27.07
2023-06-30T05:50:42.505Z,27.08
2023-06-30T05:51:41.873Z,27.11
2023-06-30T05:52:41.835Z,27.16
2023-06-30T05:53:41.884Z,27.19
2023-06-30T05:54:41.907Z,27.25
2023-06-30T05:55:42.028Z,27.29
2023-06-30T05:56:41.920Z,27.34
2023-06-30T05:57:41.950Z,27.39
2023-06-30T05:58:41.969Z,27.44
2023-06-30T05:59:41.947Z,27.47
2023-06-30T06:00:41.928Z,27.48
2023-06-30T06:01:41.977Z,27.50
2023-06-30T06:02:42.058Z,27.50
2023-06-30T06:03:42.153Z,27.51
2023-06-30T06:04:42.135Z,27.54
2023-06-30T06:05:42.061Z,27.56
2023-06-30T06:06:42.022Z,27.55
2023-06-30T06:07:42.082Z,27.44
2023-06-30T06:08:42.053Z,27.40
2023-06-30T06:09:42.053Z,27.36
2023-06-30T06:10:42.149Z,27.27
2023-06-30T06:11:42.156Z,27.22
2023-06-30T06:12:42.192Z,27.08
2023-06-30T06:13:42.281Z,27.02
2023-06-30T06:14:42.302Z,26.93
2023-06-30T06:15:42.484Z,26.90
2023-06-30T06:16:42.365Z,26.68
2023-06-30T06:17:42.405Z,26.65
2023-06-30T06:18:42.364Z,26.61
2023-06-30T06:19:42.370Z,26.60
2023-06-30T06:20:42.411Z,26.56
2023-06-30T06:21:42.422Z,26.52
2023-06-30T06:22:42.439Z,26.51
2023-06-30T06:23:42.492Z,26.44
2023-06-30T06:24:42.502Z,26.37
2023-06-30T06:25:43.257Z,26.35
2023-06-30T06:26:42.491Z,26.31
2023-06-30T06:27:42.546Z,26.30
2023-06-30T06:28:42.515Z,26.28
2023-06-30T06:29:42.486Z,26.28
2023-06-30T06:30:42.559Z,26.33
2023-06-30T06:31:42.509Z,26.34
2023-06-30T06:32:42.545Z,26.34
2023-06-30T06:33:42.513Z,26.29
2023-06-30T06:34:42.492Z,26.28
2023-06-30T06:35:42.817Z,26.17
2023-06-30T06:36:42.451Z,26.17
2023-06-30T06:37:42.484Z,26.20
2023-06-30T06:38:42.449Z,26.23
2023-06-30T06:39:42.438Z,26.31
2023-06-30T06:40:42.457Z,26.27
2023-06-30T06:41:42.418Z,26.15
2023-06-30T06:42:42.445Z,26.10
2023-06-30T06:43:42.448Z,26.12
2023-06-30T06:44:42.401Z,26.11
2023-06-30T06:45:42.688Z,26.10
2023-06-30T06:46:42.426Z,26.09
2023-06-30T06:47:42.444Z,26.16
2023-06-30T06:48:42.498Z,26.11
2023-06-30T06:49:42.751Z,26.10
2023-06-30T06:50:42.380Z,26.19
2023-06-30T06:51:42.369Z,26.35
2023-06-30T06:52:42.373Z,26.48
2023-06-30T06:53:42.358Z,26.59
2023-06-30T06:54:42.315Z,26.69
2023-06-30T06:55:42.537Z,26.82
2023-06-30T06:56:42.359Z,26.92
2023-06-30T06:57:42.311Z,27.01
2023-06-30T06:58:42.316Z,27.07
2023-06-30T06:59:42.299Z,27.12
2023-06-30T07:00:42.312Z,27.17
2023-06-30T07:01:42.335Z,27.20
2023-06-30T07:02:42.338Z,27.23
2023-06-30T07:03:42.387Z,27.25
2023-06-30T07:04:42.259Z,27.27
2023-06-30T07:05:42.520Z,27.29
2023-06-30T07:06:42.219Z,27.30
2023-06-30T07:07:42.317Z,27.32
2023-06-30T07:08:42.240Z,27.33
2023-06-30T07:09:42.236Z,27.34
2023-06-30T07:10:42.232Z,27.35
2023-06-30T07:11:42.212Z,27.36
2023-06-30T07:12:42.187Z,27.36
2023-06-30T07:13:42.207Z,27.33
2023-06-30T07:14:43.095Z,27.32
2023-06-30T07:15:42.570Z,27.28
2023-06-30T07:16:42.469Z,27.28
2023-06-30T07:17:42.485Z,27.29
2023-06-30T07:18:42.589Z,27.30
2023-06-30T07:19:42.517Z,27.31
2023-06-30T07:20:42.574Z,27.28
2023-06-30T07:21:42.569Z,27.30
2023-06-30T07:22:42.575Z,27.30
2023-06-30T07:23:42.626Z,27.31
2023-06-30T07:24:44.081Z,27.34
2023-06-30T07:25:42.855Z,27.35
2023-06-30T07:26:42.740Z,27.35
2023-06-30T07:27:42.701Z,27.36
2023-06-30T07:28:42.771Z,27.36
2023-06-30T07:29:42.777Z,27.37
2023-06-30T07:30:42.746Z,27.38
2023-06-30T07:31:42.832Z,27.39
2023-06-30T07:32:42.854Z,27.39
2023-06-30T07:33:42.821Z,27.40
2023-06-30T07:34:42.864Z,27.42
2023-06-30T07:35:42.994Z,27.42
2023-06-30T07:36:42.856Z,27.42
2023-06-30T07:37:42.896Z,27.42
2023-06-30T07:38:43.696Z,27.43
2023-06-30T07:39:42.919Z,27.44
2023-06-30T07:41:42.977Z,27.44
2023-06-30T07:42:42.885Z,27.44
2023-06-30T07:43:42.890Z,27.44
2023-06-30T07:44:42.885Z,27.44
2023-06-30T07:45:43.123Z,27.44
2023-06-30T07:46:42.894Z,27.44
2023-06-30T07:47:42.921Z,27.44
2023-06-30T07:48:42.946Z,27.43
2023-06-30T07:49:42.847Z,27.40
2023-06-30T07:50:54.683Z,27.40
2023-06-30T07:51:43.813Z,27.40
2023-06-30T07:52:43.990Z,27.42
2023-06-30T07:53:43.733Z,27.45
2023-06-30T07:54:42.840Z,27.38
2023-06-30T07:55:43.151Z,27.21
2023-06-30T07:56:42.792Z,27.16
2023-06-30T07:57:42.868Z,27.04
2023-06-30T07:58:42.790Z,26.92
2023-06-30T07:59:42.799Z,26.83
2023-06-30T08:00:42.801Z,26.76
2023-06-30T08:01:42.789Z,26.57
2023-06-30T08:02:42.833Z,26.51
2023-06-30T08:03:42.955Z,26.55
2023-06-30T08:04:42.952Z,26.63
2023-06-30T08:05:43.235Z,26.52
2023-06-30T08:06:42.733Z,26.45
2023-06-30T08:07:48.982Z,26.40
2023-06-30T08:08:43.714Z,26.43
2023-06-30T08:09:42.697Z,26.47
2023-06-30T08:10:44.709Z,26.57
2023-06-30T08:11:42.718Z,26.66
2023-06-30T08:12:42.722Z,26.59
2023-06-30T08:13:42.697Z,26.45
2023-06-30T08:14:42.736Z,26.43
2023-06-30T08:15:44.677Z,26.25
2023-06-30T08:16:42.775Z,26.26
2023-06-30T08:17:54.506Z,26.36
2023-06-30T08:18:51.327Z,26.45
2023-06-30T08:19:47.695Z,26.52
2023-06-30T08:20:43.749Z,26.60
2023-06-30T08:21:42.762Z,26.67
2023-06-30T08:22:43.664Z,26.72
2023-06-30T08:23:42.814Z,26.68
2023-06-30T08:24:42.742Z,26.71
2023-06-30T08:25:43.033Z,26.54
2023-06-30T08:26:42.739Z,26.51
2023-06-30T08:27:42.773Z,26.47
2023-06-30T08:28:42.684Z,26.32
2023-06-30T08:29:42.739Z,26.36
2023-06-30T08:30:42.836Z,26.37
2023-06-30T08:31:42.826Z,26.39
2023-06-30T08:32:42.883Z,26.43
2023-06-30T08:33:43.009Z,26.49
2023-06-30T08:34:42.944Z,26.48
2023-06-30T08:35:43.131Z,26.51
2023-06-30T08:36:43.005Z,26.42
2023-06-30T08:37:43.014Z,26.38
2023-06-30T08:38:43.078Z,26.39
2023-06-30T08:39:43.085Z,26.47
2023-06-30T08:40:43.116Z,26.50
2023-06-30T08:41:43.139Z,26.48
2023-06-30T08:42:43.203Z,26.58
2023-06-30T08:43:43.165Z,26.71
2023-06-30T08:44:43.169Z,26.85
2023-06-30T08:45:43.526Z,26.95
2023-06-30T08:46:43.278Z,27.04
2023-06-30T08:47:43.611Z,27.12
2023-06-30T08:48:43.382Z,27.21
2023-06-30T08:49:43.451Z,27.28
2023-06-30T08:50:43.453Z,27.37
2023-06-30T08:51:43.472Z,27.46
2023-06-30T08:52:43.491Z,27.49
2023-06-30T08:53:43.520Z,27.54
2023-06-30T08:54:43.557Z,27.57
2023-06-30T08:55:43.782Z,27.58
2023-06-30T08:56:43.597Z,27.59
2023-06-30T08:57:43.613Z,27.61
2023-06-30T08:58:43.614Z,27.61
2023-06-30T08:59:44.612Z,27.62
2023-06-30T09:00:43.640Z,27.62
2023-06-30T09:01:45.554Z,27.63
2023-06-30T09:02:43.604Z,27.62
2023-06-30T09:03:43.688Z,27.61
2023-06-30T09:04:43.581Z,27.62
2023-06-30T09:05:43.786Z,27.62
2023-06-30T09:06:43.535Z,27.62
2023-06-30T09:07:43.669Z,27.62
2023-06-30T09:08:43.536Z,27.61
2023-06-30T09:09:43.544Z,27.61
2023-06-30T09:10:43.549Z,27.62
2023-06-30T09:11:43.514Z,27.64
2023-06-30T09:12:43.517Z,27.68
2023-06-30T09:13:43.543Z,27.72
2023-06-30T09:14:43.476Z,27.76
2023-06-30T09:15:43.850Z,27.78
2023-06-30T09:16:43.523Z,27.79
2023-06-30T09:17:43.508Z,27.82
2023-06-30T09:18:43.477Z,27.82
2023-06-30T09:19:43.472Z,27.82
2023-06-30T09:20:43.458Z,27.82
2023-06-30T09:21:43.467Z,27.81
2023-06-30T09:22:55.100Z,27.81
2023-06-30T09:23:44.459Z,27.79
2023-06-30T09:24:43.433Z,27.79
2023-06-30T09:25:43.705Z,27.80
2023-06-30T09:26:43.394Z,27.79
2023-06-30T09:27:43.399Z,27.79
2023-06-30T09:28:44.409Z,27.78
2023-06-30T09:29:43.396Z,27.77
2023-06-30T09:30:43.428Z,27.77
2023-06-30T09:31:43.413Z,27.76
2023-06-30T09:32:43.457Z,27.75
2023-06-30T09:33:43.407Z,27.74
2023-06-30T09:34:43.348Z,27.73
2023-06-30T09:35:43.632Z,27.72
2023-06-30T09:36:43.377Z,27.72
2023-06-30T09:37:43.391Z,27.70
2023-06-30T09:38:43.350Z,27.69
2023-06-30T09:39:43.307Z,27.69
2023-06-30T09:40:43.757Z,27.68
2023-06-30T09:41:43.302Z,27.67
2023-06-30T09:42:44.212Z,27.66
2023-06-30T09:43:43.314Z,27.66
2023-06-30T09:44:43.316Z,27.66
2023-06-30T09:45:43.822Z,27.66
2023-06-30T09:46:43.376Z,27.66
2023-06-30T09:47:43.293Z,27.63
2023-06-30T09:48:43.304Z,27.61
2023-06-30T09:49:43.309Z,27.63
2023-06-30T09:50:43.316Z,27.68
2023-06-30T09:51:43.321Z,27.70
2023-06-30T09:52:43.322Z,27.74
2023-06-30T09:53:43.353Z,27.78
2023-06-30T09:54:45.215Z,27.80
2023-06-30T09:55:43.522Z,27.83
2023-06-30T09:56:43.300Z,27.86
2023-06-30T09:57:43.311Z,27.89
2023-06-30T09:58:43.316Z,27.88
2023-06-30T09:59:43.330Z,27.88
2023-06-30T10:00:43.783Z,27.89
2023-06-30T10:01:43.383Z,27.89
2023-06-30T10:02:43.434Z,27.83
2023-06-30T10:03:43.404Z,27.74
2023-06-30T10:04:43.363Z,27.70
2023-06-30T10:05:44.074Z,27.66
2023-06-30T10:06:43.412Z,27.65
2023-06-30T10:07:43.469Z,27.65
2023-06-30T10:08:43.390Z,27.63
2023-06-30T10:09:43.392Z,27.63
2023-06-30T10:10:43.793Z,27.64
2023-06-30T10:11:43.429Z,27.62
2023-06-30T10:12:44.329Z,27.60
2023-06-30T10:13:43.414Z,27.62
2023-06-30T10:14:43.436Z,27.58
2023-06-30T10:15:43.982Z,27.57
2023-06-30T10:16:43.494Z,27.58
2023-06-30T10:17:43.634Z,27.60
2023-06-30T10:18:43.524Z,27.62
2023-06-30T10:19:43.525Z,27.62
2023-06-30T10:20:49.168Z,27.63
2023-06-30T10:21:44.544Z,27.61
2023-06-30T10:22:43.534Z,27.62
2023-06-30T10:23:43.496Z,27.56
2023-06-30T10:24:43.453Z,27.53
2023-06-30T10:25:43.628Z,27.52
2023-06-30T10:26:43.519Z,27.50
2023-06-30T10:27:43.470Z,27.51
2023-06-30T10:28:43.460Z,27.50
2023-06-30T10:29:43.486Z,27.48
2023-06-30T10:30:43.750Z,27.46
2023-06-30T10:31:43.515Z,27.46
2023-06-30T10:32:43.513Z,27.47
2023-06-30T10:33:43.471Z,27.45
2023-06-30T10:34:43.425Z,27.46
2023-06-30T10:35:44.168Z,27.46
2023-06-30T10:36:43.418Z,27.47
2023-06-30T10:37:43.420Z,27.47
2023-06-30T10:38:43.434Z,27.46
2023-06-30T10:39:43.457Z,27.45
2023-06-30T10:40:43.815Z,27.43
2023-06-30T10:41:43.570Z,27.42
2023-06-30T10:42:43.620Z,27.44
2023-06-30T10:43:43.787Z,27.45
2023-06-30T10:44:43.745Z,27.49
2023-06-30T10:45:44.012Z,27.52
2023-06-30T10:46:43.959Z,27.57
2023-06-30T10:47:43.873Z,27.61
2023-06-30T10:48:43.855Z,27.64
2023-06-30T10:49:43.885Z,27.67
2023-06-30T10:50:43.908Z,27.70
2023-06-30T10:51:43.904Z,27.73
2023-06-30T10:52:43.925Z,27.78
2023-06-30T10:53:43.919Z,27.81
2023-06-30T10:54:43.947Z,27.81
2023-06-30T10:55:43.951Z,27.83
2023-06-30T10:56:43.907Z,27.87
2023-06-30T10:57:43.919Z,27.88
2023-06-30T10:58:43.999Z,27.91
2023-06-30T10:59:44.005Z,27.94
2023-06-30T11:00:43.999Z,27.95
2023-06-30T11:01:44.038Z,27.97
2023-06-30T11:02:44.122Z,27.92
2023-06-30T11:03:44.164Z,27.95
2023-06-30T11:04:44.307Z,27.97
2023-06-30T11:05:44.553Z,27.96
2023-06-30T11:06:44.290Z,27.98
2023-06-30T11:07:44.287Z,27.98
2023-06-30T11:08:44.368Z,27.96
2023-06-30T11:09:44.405Z,27.97
2023-06-30T11:10:44.540Z,28.01
2023-06-30T11:11:44.552Z,28.01
2023-06-30T11:12:44.594Z,28.04
2023-06-30T11:13:44.669Z,28.05
2023-06-30T11:14:44.777Z,28.04
2023-06-30T11:15:45.395Z,28.04
2023-06-30T11:16:44.868Z,28.05
2023-06-30T11:17:44.953Z,28.07
2023-06-30T11:18:45.060Z,28.09
2023-06-30T11:19:45.008Z,28.11
2023-06-30T11:20:45.052Z,28.10
2023-06-30T11:21:45.115Z,28.09
2023-06-30T11:22:45.176Z,28.10
2023-06-30T11:23:45.189Z,28.12
2023-06-30T11:24:45.233Z,28.13
2023-06-30T11:25:45.306Z,28.13
2023-06-30T11:26:45.419Z,28.17
2023-06-30T11:27:45.382Z,28.17
2023-06-30T11:28:45.425Z,28.20
2023-06-30T11:29:45.510Z,28.22
2023-06-30T11:30:45.560Z,28.21
2023-06-30T11:31:45.568Z,28.22
2023-06-30T11:32:45.650Z,28.25
2023-06-30T11:33:45.664Z,28.29
2023-06-30T11:34:45.715Z,28.33
2023-06-30T11:35:45.969Z,28.36
2023-06-30T11:36:45.747Z,28.35
2023-06-30T11:37:45.802Z,28.35
2023-06-30T11:38:45.839Z,28.35
2023-06-30T11:39:45.885Z,28.35
2023-06-30T11:40:45.918Z,28.34
2023-06-30T11:41:45.992Z,28.32
2023-06-30T11:42:46.032Z,28.31
2023-06-30T11:43:46.038Z,28.31
2023-06-30T11:44:46.075Z,28.30
2023-06-30T11:45:46.292Z,28.27
2023-06-30T11:46:46.248Z,28.26
2023-06-30T11:47:46.396Z,28.26
2023-06-30T11:48:46.288Z,28.25
2023-06-30T11:49:46.368Z,28.24
2023-06-30T11:50:46.687Z,28.19
2023-06-30T11:51:46.493Z,28.18
2023-06-30T11:52:46.550Z,28.15
2023-06-30T11:53:46.596Z,28.15
2023-06-30T11:54:46.693Z,28.15
2023-06-30T11:55:46.843Z,28.14
2023-06-30T11:56:46.781Z,28.11
2023-06-30T11:57:46.866Z,28.10
2023-06-30T11:58:46.869Z,28.07
2023-06-30T11:59:46.919Z,28.05
2023-06-30T12:00:47.224Z,28.08
2023-06-30T12:01:46.979Z,28.09
2023-06-30T12:02:48.719Z,28.06
2023-06-30T12:03:47.202Z,28.03
2023-06-30T12:04:47.113Z,28.06
2023-06-30T12:05:47.182Z,28.04
2023-06-30T12:06:47.039Z,28.04
2023-06-30T12:07:47.019Z,28.01
2023-06-30T12:08:47.008Z,28.02
2023-06-30T12:09:46.985Z,27.97
2023-06-30T12:10:47.120Z,27.97
2023-06-30T12:11:47.000Z,27.96
2023-06-30T12:12:46.963Z,27.95
2023-06-30T12:13:46.987Z,27.96
2023-06-30T12:14:46.982Z,27.96
2023-06-30T12:15:47.960Z,27.96
2023-06-30T12:16:46.982Z,27.94
2023-06-30T12:17:46.995Z,27.94
2023-06-30T12:18:46.951Z,27.95
2023-06-30T12:19:46.919Z,27.96
2023-06-30T12:20:46.922Z,27.95
2023-06-30T12:21:46.946Z,27.95
2023-06-30T12:22:46.917Z,27.95
2023-06-30T12:23:46.906Z,27.94
2023-06-30T12:24:46.931Z,27.94
2023-06-30T12:25:47.202Z,27.92
2023-06-30T12:26:46.949Z,27.93
2023-06-30T12:27:46.887Z,27.93
2023-06-30T12:28:46.913Z,27.93
2023-06-30T12:29:46.868Z,27.94
2023-06-30T12:30:47.133Z,27.90
2023-06-30T12:31:46.841Z,27.91
2023-06-30T12:32:46.882Z,27.90
2023-06-30T12:33:46.841Z,27.93
2023-06-30T12:34:47.047Z,27.94
2023-06-30T12:35:47.816Z,27.91
2023-06-30T12:36:46.789Z,27.89
2023-06-30T12:37:46.811Z,27.88
2023-06-30T12:38:46.837Z,27.86
2023-06-30T12:39:46.793Z,27.88
2023-06-30T12:40:47.001Z,27.86
2023-06-30T12:41:46.773Z,27.86
2023-06-30T12:42:46.752Z,27.87
2023-06-30T12:43:46.794Z,27.85
2023-06-30T12:44:46.753Z,27.85
2023-06-30T12:45:46.838Z,27.84
2023-06-30T12:46:46.768Z,27.83
2023-06-30T12:47:46.790Z,27.84
2023-06-30T12:48:46.773Z,27.83
2023-06-30T12:49:46.712Z,27.82
2023-06-30T12:50:47.034Z,27.82
2023-06-30T12:51:46.741Z,27.81
2023-06-30T12:52:46.730Z,27.80
2023-06-30T12:53:46.690Z,27.82